Flight Track Log - Related Links

Times and Time Zones

All times are in EDT time to prevent confusion due to time zone crossing. See the N600TR flight status page for this flight to view local times or setup timezone preferences in your user account.

Time Position Orientation Groundspeed Altitude Reporting Facility
EDT Latitude Longitude Course Direction KTS MPH feet Rate Location/Type
Tue 12:21:04 PM 33.6244 -84.4853 54° Northeast 443 510 29,000  Level Atlanta Center
Tue 12:22:04 PM 33.5950 -84.5525 242° Southwest 353 406 4,200 -10,850 Descending Atlanta Center
Tue 12:23:00 PM 33.8167 -83.9017 90° East  Level FlightAware Approximate
Tue 12:23:04 PM 33.5403 -84.6019 217° Southwest 255 293 7,300  Level Atlanta Center
Tue 12:24:00 PM 33.8775 -83.7822 54° Northeast  Level FlightAware Approximate
Tue 12:24:04 PM 33.4697 -84.5592 153° Southeast 296 341 9,700  Level Atlanta Center
Tue 12:25:00 PM 33.9466 -83.6689 54° Northeast  Level FlightAware Approximate
Tue 12:25:04 PM 33.4681 -84.4547 91° East 257 296 11,900  Level Atlanta Center
Tue 12:26:00 PM 34.0157 -83.5554 54° Northeast  Level FlightAware Approximate
Tue 12:26:04 PM 33.5017 -84.3403 71° East 332 382 12,900  Level Atlanta Center
Tue 12:27:04 PM 33.5436 -84.2233 67° East 361 415 15,300 2,150 Climbing Atlanta Center
Tue 12:28:04 PM 33.5897 -84.1036 65° Northeast 385 443 17,200 1,400 Climbing Atlanta Center
Tue 12:29:04 PM 33.6461 -83.9814 61° Northeast 400 460 18,100 1,200 Climbing Atlanta Center
Tue 12:30:04 PM 33.7231 -83.8764 49° Northeast 418 481 19,600 1,450 Climbing Atlanta Center
Tue 12:31:04 PM 33.7961 -83.7714 50° Northeast 412 474 21,000 1,400 Climbing Atlanta Center
Tue 12:32:04 PM 33.8708 -83.6711 48° Northeast 407 468 22,400 1,350 Climbing Atlanta Center
Tue 12:33:04 PM 33.9497 -83.5606 49° Northeast 407 468 23,700 1,250 Climbing Atlanta Center
Tue 12:34:04 PM 34.0244 -83.4597 48° Northeast 402 463 24,900 900 Climbing Atlanta Center
Tue 12:35:04 PM 34.0950 -83.3589 50° Northeast 402 463 25,500 650 Climbing Atlanta Center
Tue 12:36:04 PM 34.1672 -83.2403 54° Northeast 415 478 26,200 700 Climbing Atlanta Center
Tue 12:37:04 PM 34.2394 -83.1192 54° Northeast 435 501 26,900 400 Climbing Atlanta Center
Tue 12:38:04 PM 34.3117 -82.9925 55° Northeast 452 520 27,000 50 Climbing Atlanta Center
Tue 12:39:04 PM 34.3939 -82.8683 51° Northeast 458 527 27,000  Level Atlanta Center
Tue 12:40:04 PM 34.4806 -82.7561 47° Northeast 463 533 27,000  Level Atlanta Center
Tue 12:41:04 PM 34.5731 -82.6361 47° Northeast 468 539 27,000  Level Atlanta Center
Tue 12:42:04 PM 34.6553 -82.5339 46° Northeast 468 539 27,000  Level Atlanta Center
Tue 12:43:04 PM 34.7456 -82.4158 47° Northeast 468 539 27,000  Level Atlanta Center
Tue 12:44:04 PM 34.8189 -82.2828 56° Northeast 468 539 27,000  Level Atlanta Center
Tue 12:45:04 PM 34.8878 -82.1472 58° Northeast 468 539 27,000  Level Atlanta Center
Tue 12:46:04 PM 34.9689 -81.9983 56° Northeast 468 539 27,000  Level Atlanta Center
Tue 12:47:04 PM 35.0694 -81.8994 39° Northeast 456 525 27,000 -500 Level Atlanta Center
Tue 12:48:04 PM 35.1872 -81.8303 26° Northeast 461 531 26,000 -1,350 Descending Atlanta Center
Tue 12:49:04 PM 35.2775 -81.7467 37° Northeast 461 531 24,300 -1,800 Descending Atlanta Center
Tue 12:50:04 PM 35.3864 -81.6644 32° Northeast 456 525 22,400 -1,550 Descending Atlanta Center
Tue 12:51:04 PM 35.4872 -81.5903 31° Northeast 439 505 21,200 -1,250 Descending Atlanta Center
Tue 12:52:04 PM 35.5878 -81.5106 33° Northeast 428 493 19,900 -1,750 Descending Atlanta Center
Tue 12:53:04 PM 35.6925 -81.4231 34° Northeast 416 479 17,700 -2,100 Descending Atlanta Center
Tue 12:54:04 PM 35.7806 -81.3433 36° Northeast 401 461 15,700 -1,350 Descending Atlanta Center
Tue 12:55:04 PM 35.8600 -81.2614 40° Northeast 381 438 15,000 -300 Descending Atlanta Center
Tue 12:56:04 PM 35.9158 -81.1492 58° Northeast 376 433 15,100 -350 Climbing Atlanta Center
Tue 12:57:04 PM 35.9697 -81.0444 58° Northeast 384 442 14,300 -1,000 Descending Atlanta Center
Tue 12:58:04 PM 36.0272 -80.9319 58° Northeast 394 453 13,100 -1,200 Descending Atlanta Center
Tue 12:59:04 PM 36.0892 -80.8244 54° Northeast 394 453 11,900 -1,050 Descending Atlanta Center
Tue 01:00:04 PM 36.1172 -80.6997 74° East 382 440 11,000 -450 Descending Atlanta Center
Tue 01:01:04 PM 36.1136 -80.5689 92° East 375 432 11,000  Level Atlanta Center
Tue 01:02:04 PM 36.1069 -80.4175 93° East 393 452 11,000  Level Atlanta Center
Tue 01:03:04 PM 36.0986 -80.2792 94° East 400 460 11,000  Level Atlanta Center
Tue 01:04:04 PM 36.0636 -80.1600 110° East 394 453 11,000  Level Atlanta Center
Tue 01:05:04 PM 36.0772 -80.0617 80° East 353 406 11,000  Level Atlanta Center
Tue 01:06:04 PM 36.1542 -79.9861 38° Northeast 298 343 11,000 -1,200 Level Atlanta Center
Tue 01:07:04 PM 36.2144 -79.9239 40° Northeast 281 323 8,600 -1,950 Descending Atlanta Center
Tue 01:08:04 PM 36.2875 -79.8633 34° Northeast 290 334 7,100 -1,500 Descending Atlanta Center
Tue 01:10:00 PM 36.1000 -79.9333 200° South  Level FlightAware Approximate
Tue 01:17:00 PM 36.1013 -79.9411 200° South  Level Estimated
Tue 01:18:00 PM 36.1000 -79.9333 200° South  Level FlightAware Approximate
Tue 01:19:00 PM 36.1013 -79.9411 200° South  Level Estimated

Login

Don't have an account? Register now (free) for customized features, flight alerts, and more!